Air Quality Table

TIMESTAMP NO2 SO2 O3 PM10 PM2.5 CO TEMP HUM AIRPRES WS WD NO BENZENE
2023-01-30 03:00 27.45 µg/m3 0.74 µg/m3 61.6 µg/m3 13.12 µg/m3 4.87 µg/m3 0.18 mg/m3 11.3 °C 80.09 % 1,018.28 mbar 2.31 m/s 231.58 Deg 0.11 µg/m3 1.39 µg/m3
2023-01-30 02:00 1.9 µg/m3 0.96 µg/m3 66.62 µg/m3 8.6 µg/m3 3.43 µg/m3 0.26 mg/m3 12.02 °C 72.42 % 1,018.17 mbar 3.49 m/s 32.53 Deg 0.09 µg/m3 1.23 µg/m3
2023-01-30 01:00 0.63 µg/m3 0.77 µg/m3 62.87 µg/m3 9.75 µg/m3 5 µg/m3 0.3 mg/m3 12.88 °C 70.51 % 1,017.82 mbar 5.93 m/s 42.37 Deg 0.67 µg/m3 1.65 µg/m3
2023-01-30 00:00 2.2 µg/m3 0.53 µg/m3 60.64 µg/m3 12.7 µg/m3 6.57 µg/m3 0.32 mg/m3 13.52 °C 66.75 % 1,018.00 mbar 4.95 m/s 39.88 Deg 1.5 µg/m3 1.66 µg/m3
2023-01-29 23:00 1.1 µg/m3 0.37 µg/m3 63.54 µg/m3 12.42 µg/m3 6.53 µg/m3 0.34 mg/m3 13.5 °C 68.83 % 1,017.85 mbar 5.37 m/s 53.83 Deg 0.93 µg/m3 1.68 µg/m3
2023-01-29 22:00 2.9 µg/m3 0.66 µg/m3 60.19 µg/m3 13.06 µg/m3 6.61 µg/m3 0.37 mg/m3 13.33 °C 71.12 % 1,017.75 mbar 5.16 m/s 44.04 Deg 1.11 µg/m3 1.84 µg/m3
2023-01-29 21:00 15.63 µg/m3 0.74 µg/m3 43.32 µg/m3 13.01 µg/m3 6.28 µg/m3 0.4 mg/m3 10.47 °C 84.51 % 1,017.57 mbar 1.47 m/s 237.67 Deg 4.69 µg/m3 1.99 µg/m3
2023-01-29 20:00 28.66 µg/m3 0.64 µg/m3 37.55 µg/m3 9.15 µg/m3 4.91 µg/m3 0.4 mg/m3 10.28 °C 87.24 % 1,017.49 mbar 1.08 m/s 146.46 Deg 8.52 µg/m3 2.39 µg/m3
2023-01-29 19:00 32.6 µg/m3 0.73 µg/m3 34.76 µg/m3 9.35 µg/m3 4.68 µg/m3 0.39 mg/m3 10.3 °C 87.15 % 1,017.25 mbar 0.99 m/s 137.45 Deg 11.06 µg/m3 2.73 µg/m3
2023-01-29 18:00 13.4 µg/m3 0.42 µg/m3 51.47 µg/m3 13.62 µg/m3 4.77 µg/m3 0.33 mg/m3 11.77 °C 76.72 % 1,016.67 mbar 3.05 m/s 174.29 Deg 5.38 µg/m3 1.81 µg/m3
2023-01-29 17:00 8.38 µg/m3 0.5 µg/m3 56.8 µg/m3 11.23 µg/m3 4.17 µg/m3 0.31 mg/m3 12.7 °C 73.3 % 1,016.09 mbar 5.11 m/s 59.21 Deg 4.77 µg/m3 1.89 µg/m3
2023-01-29 16:00 8.42 µg/m3 0.9 µg/m3 56.36 µg/m3 12.98 µg/m3 4.43 µg/m3 0.31 mg/m3 12.92 °C 73.67 % 1,015.91 mbar 5.17 m/s 46.23 Deg 5.09 µg/m3 1.87 µg/m3
2023-01-29 15:00 5.62 µg/m3 0.54 µg/m3 59.91 µg/m3 11.87 µg/m3 4.68 µg/m3 0.32 mg/m3 12.99 °C 71.52 % 1,015.71 mbar 4.91 m/s 60.68 Deg 3.62 µg/m3 1.73 µg/m3
2023-01-29 14:00 7.89 µg/m3 0.67 µg/m3 58.59 µg/m3 12.69 µg/m3 5.12 µg/m3 0.34 mg/m3 13.05 °C 70.63 % 1,015.91 mbar 4.5 m/s 57.78 Deg 4.54 µg/m3 3.15 µg/m3
2023-01-29 13:00 8.04 µg/m3 0.89 µg/m3 57.21 µg/m3 12.79 µg/m3 4.38 µg/m3 0.34 mg/m3 12.97 °C 68.65 % 1,016.55 mbar 4.07 m/s 54.45 Deg 4.18 µg/m3 1.84 µg/m3
2023-01-29 12:00 7.75 µg/m3 0.82 µg/m3 58.33 µg/m3 10.58 µg/m3 3.36 µg/m3 0.33 mg/m3 12.83 °C 66.14 % 1,017.15 mbar 3.91 m/s 55.43 Deg 3.71 µg/m3 2.15 µg/m3
2023-01-29 11:00 8.72 µg/m3 0.61 µg/m3 54.02 µg/m3 7.66 µg/m3 2.98 µg/m3 0.34 mg/m3 12.68 °C 70.66 % 1,017.17 mbar 3.58 m/s 58.25 Deg 3.88 µg/m3 1.52 µg/m3
2023-01-29 10:00 7.56 µg/m3 0.77 µg/m3 57.75 µg/m3 3.36 µg/m3 2.16 µg/m3 0.35 mg/m3 12.89 °C 66.56 % 1,016.52 mbar 4.5 m/s 47.77 Deg 3.28 µg/m3 1.21 µg/m3
2023-01-29 09:00 15.46 µg/m3 0.53 µg/m3 49.62 µg/m3 3.7 µg/m3 2.19 µg/m3 0.37 mg/m3 12.19 °C 69.91 % 1,015.88 mbar 2.62 m/s 117.68 Deg 9.39 µg/m3 1.84 µg/m3
2023-01-29 08:00 22.19 µg/m3 0.61 µg/m3 36.98 µg/m3 5.96 µg/m3 2.82 µg/m3 0.32 mg/m3 10.52 °C 76.84 % 1,015.28 mbar 0.75 m/s 237.04 Deg 11.58 µg/m3 1.31 µg/m3
2023-01-29 07:00 8.97 µg/m3 0.55 µg/m3 55.37 µg/m3 5.4 µg/m3 2.28 µg/m3 0.27 mg/m3 10.5 °C 77.46 % 1,014.95 mbar 1.4 m/s 274.21 Deg 3.27 µg/m3 1.21 µg/m3
2023-01-29 06:00 6.42 µg/m3 0.44 µg/m3 56.28 µg/m3 4.35 µg/m3 2.13 µg/m3 0.28 mg/m3 10.53 °C 76.66 % 1,014.72 mbar 2.21 m/s 290.12 Deg 1.2 µg/m3 1.12 µg/m3
2023-01-29 05:00 10.23 µg/m3 0.7 µg/m3 51.16 µg/m3 3.55 µg/m3 2.06 µg/m3 0.29 mg/m3 10.11 °C 79.68 % 1,014.48 mbar 1.67 m/s 238.4 Deg 2.4 µg/m3 1.23 µg/m3

It is to be noted that the data is provisional and subject to quality assurance procedures. For validated data kindly refer your request to contact.air@era.org.mt